La Grande, Canada
Current Conditions -  °F | °C
As of 1:21 AM on Wednesday 28 Jan 2015 (Local Time) from CYGL Reporting Station
Light Snow Light Snow  
Wind Chill: -15°   Ceiling: 2000
Heat Index:   Visibility: 6mi
Dew Point: -2°   Wind: 18mph
Humidity: 72%   Direction: 180°S
Pressure: 29.99"   Gusts: 25mph
Location:  53.63°N, 77.7°W
Report Text: CYGL 280621Z 18016G22KT 6SM -SN OVC020 M15/M19 A2999 RMK SC8 SLP176
Loading
Personal Weather Stations






























Interactive Weather Map New forecast layout! Learn more

10-Day Weather Forecast

Advertisements
Track Severe Weather on mobile